sensor_id;sensor_type;location;lat;lon;timestamp;pressure;altitude;pressure_sealevel;temperature;humidity
73525;BME280;61776;56.194;44.160;2022-09-16T05:02:30;99576.38;;;12.81;72.87
73525;BME280;61776;56.194;44.160;2022-09-16T05:05:00;99571.81;;;12.84;73.34
73525;BME280;61776;56.194;44.160;2022-09-16T05:07:30;99571.31;;;12.88;72.77
73525;BME280;61776;56.194;44.160;2022-09-16T05:09:58;99571.00;;;12.91;73.02
73525;BME280;61776;56.194;44.160;2022-09-16T05:12:26;99565.63;;;12.68;71.02
73525;BME280;61776;56.194;44.160;2022-09-16T05:14:55;99569.22;;;12.59;72.67
73525;BME280;61776;56.194;44.160;2022-09-16T05:17:31;99563.66;;;12.62;73.40
73525;BME280;61776;56.194;44.160;2022-09-16T05:20:00;99571.16;;;12.73;73.53
73525;BME280;61776;56.194;44.160;2022-09-16T05:22:28;99575.22;;;12.84;73.22
73525;BME280;61776;56.194;44.160;2022-09-16T05:24:56;99569.53;;;12.97;73.39
73525;BME280;61776;56.194;44.160;2022-09-16T05:27:28;99566.59;;;13.00;72.63
73525;BME280;61776;56.194;44.160;2022-09-16T05:29:55;99566.72;;;13.07;73.06
73525;BME280;61776;56.194;44.160;2022-09-16T05:32:22;99565.59;;;13.17;72.56
73525;BME280;61776;56.194;44.160;2022-09-16T05:34:52;99569.00;;;13.26;71.79
73525;BME280;61776;56.194;44.160;2022-09-16T05:37:19;99566.56;;;13.33;71.74
73525;BME280;61776;56.194;44.160;2022-09-16T05:39:47;99565.88;;;13.39;71.91
73525;BME280;61776;56.194;44.160;2022-09-16T05:42:16;99561.63;;;13.46;71.76
73525;BME280;61776;56.194;44.160;2022-09-16T05:44:42;99557.38;;;13.53;71.62
73525;BME280;61776;56.194;44.160;2022-09-16T05:47:12;99558.63;;;13.66;71.25
73525;BME280;61776;56.194;44.160;2022-09-16T05:49:40;99571.63;;;13.74;70.84
73525;BME280;61776;56.194;44.160;2022-09-16T05:52:08;99562.47;;;13.78;70.84
73525;BME280;61776;56.194;44.160;2022-09-16T05:54:37;99570.94;;;13.88;70.75
73525;BME280;61776;56.194;44.160;2022-09-16T05:57:07;99566.59;;;14.04;70.23
73525;BME280;61776;56.194;44.160;2022-09-16T05:59:35;99563.72;;;14.22;69.89
73525;BME280;61776;56.194;44.160;2022-09-16T06:02:03;99569.19;;;14.35;68.84
73525;BME280;61776;56.194;44.160;2022-09-16T06:04:31;99562.84;;;14.52;68.83
73525;BME280;61776;56.194;44.160;2022-09-16T06:06:58;99564.19;;;14.71;67.99
73525;BME280;61776;56.194;44.160;2022-09-16T06:09:28;99561.94;;;15.06;66.68
73525;BME280;61776;56.194;44.160;2022-09-16T06:11:57;99567.09;;;15.44;65.91
73525;BME280;61776;56.194;44.160;2022-09-16T06:14:26;99562.13;;;15.64;62.34
73525;BME280;61776;56.194;44.160;2022-09-16T06:16:54;99570.44;;;15.53;63.27
73525;BME280;61776;56.194;44.160;2022-09-16T06:19:21;99572.41;;;15.06;63.32
73525;BME280;61776;56.194;44.160;2022-09-16T06:21:48;99571.28;;;14.86;65.27
73525;BME280;61776;56.194;44.160;2022-09-16T06:24:16;99569.91;;;14.75;64.84
73525;BME280;61776;56.194;44.160;2022-09-16T06:26:46;99569.34;;;14.65;65.19
73525;BME280;61776;56.194;44.160;2022-09-16T06:29:14;99566.22;;;14.38;65.51
73525;BME280;61776;56.194;44.160;2022-09-16T06:31:42;99573.88;;;14.40;66.41
73525;BME280;61776;56.194;44.160;2022-09-16T06:34:14;99569.25;;;14.50;65.64
73525;BME280;61776;56.194;44.160;2022-09-16T06:36:41;99571.97;;;14.56;65.78
73525;BME280;61776;56.194;44.160;2022-09-16T06:39:10;99570.66;;;14.61;64.27
73525;BME280;61776;56.194;44.160;2022-09-16T06:41:38;99572.97;;;14.79;65.22
73525;BME280;61776;56.194;44.160;2022-09-16T06:44:07;99570.69;;;14.75;62.44
73525;BME280;61776;56.194;44.160;2022-09-16T06:46:34;99558.72;;;14.66;63.76
73525;BME280;61776;56.194;44.160;2022-09-16T06:49:02;99562.72;;;14.92;64.53
73525;BME280;61776;56.194;44.160;2022-09-16T06:51:30;99563.13;;;15.33;64.09
73525;BME280;61776;56.194;44.160;2022-09-16T06:54:05;99566.56;;;15.49;62.33
73525;BME280;61776;56.194;44.160;2022-09-16T06:56:34;99570.72;;;15.58;62.12
73525;BME280;61776;56.194;44.160;2022-09-16T06:59:04;99566.56;;;15.64;61.99
73525;BME280;61776;56.194;44.160;2022-09-16T07:01:31;99567.38;;;15.79;61.48
73525;BME280;61776;56.194;44.160;2022-09-16T07:04:06;99554.13;;;16.02;60.92
73525;BME280;61776;56.194;44.160;2022-09-16T07:06:33;99564.25;;;16.05;60.68
73525;BME280;61776;56.194;44.160;2022-09-16T07:09:03;99555.59;;;16.26;60.95
73525;BME280;61776;56.194;44.160;2022-09-16T07:11:32;99555.72;;;16.40;60.27
73525;BME280;61776;56.194;44.160;2022-09-16T07:14:05;99560.56;;;16.64;60.52
73525;BME280;61776;56.194;44.160;2022-09-16T07:16:33;99555.47;;;16.78;59.97
73525;BME280;61776;56.194;44.160;2022-09-16T07:19:02;99551.78;;;16.94;59.20
73525;BME280;61776;56.194;44.160;2022-09-16T07:21:32;99555.94;;;17.10;58.35
73525;BME280;61776;56.194;44.160;2022-09-16T07:24:02;99547.72;;;17.19;57.98
73525;BME280;61776;56.194;44.160;2022-09-16T07:26:31;99549.94;;;17.22;57.58
73525;BME280;61776;56.194;44.160;2022-09-16T07:29:02;99563.78;;;17.10;56.65
73525;BME280;61776;56.194;44.160;2022-09-16T07:31:35;99555.44;;;16.99;57.03
73525;BME280;61776;56.194;44.160;2022-09-16T07:34:04;99562.69;;;16.76;57.21
73525;BME280;61776;56.194;44.160;2022-09-16T07:36:36;99558.19;;;16.69;58.76
73525;BME280;61776;56.194;44.160;2022-09-16T07:39:06;99562.59;;;16.84;59.27
73525;BME280;61776;56.194;44.160;2022-09-16T07:41:37;99552.56;;;16.94;57.94
73525;BME280;61776;56.194;44.160;2022-09-16T07:44:07;99554.63;;;16.77;56.79
73525;BME280;61776;56.194;44.160;2022-09-16T07:46:43;99557.53;;;16.82;58.36
73525;BME280;61776;56.194;44.160;2022-09-16T07:49:13;99552.19;;;16.97;58.38
73525;BME280;61776;56.194;44.160;2022-09-16T07:51:40;99546.06;;;17.12;58.14
73525;BME280;61776;56.194;44.160;2022-09-16T07:54:12;99534.78;;;17.18;56.73
73525;BME280;61776;56.194;44.160;2022-09-16T07:56:40;99546.06;;;16.83;57.23
73525;BME280;61776;56.194;44.160;2022-09-16T07:59:13;99550.59;;;16.75;57.68
73525;BME280;61776;56.194;44.160;2022-09-16T08:01:41;99545.03;;;16.84;58.29
73525;BME280;61776;56.194;44.160;2022-09-16T08:04:11;99537.94;;;17.06;58.88
73525;BME280;61776;56.194;44.160;2022-09-16T08:06:39;99540.09;;;17.31;58.48
73525;BME280;61776;56.194;44.160;2022-09-16T08:09:06;99536.19;;;17.55;57.98
73525;BME280;61776;56.194;44.160;2022-09-16T08:11:36;99531.81;;;17.76;57.33
73525;BME280;61776;56.194;44.160;2022-09-16T08:14:05;99540.19;;;17.93;56.26
73525;BME280;61776;56.194;44.160;2022-09-16T08:16:35;99541.81;;;17.94;55.55
73525;BME280;61776;56.194;44.160;2022-09-16T08:19:01;99530.03;;;17.83;54.79
73525;BME280;61776;56.194;44.160;2022-09-16T08:21:28;99531.03;;;17.82;55.59
73525;BME280;61776;56.194;44.160;2022-09-16T08:23:56;99536.34;;;17.95;55.87
73525;BME280;61776;56.194;44.160;2022-09-16T08:26:23;99532.97;;;18.15;55.59
73525;BME280;61776;56.194;44.160;2022-09-16T08:28:51;99521.25;;;18.31;52.03
73525;BME280;61776;56.194;44.160;2022-09-16T08:31:20;99519.47;;;18.31;53.71
73525;BME280;61776;56.194;44.160;2022-09-16T08:33:48;99523.50;;;18.34;53.90
73525;BME280;61776;56.194;44.160;2022-09-16T08:36:20;99522.06;;;18.38;53.44
73525;BME280;61776;56.194;44.160;2022-09-16T08:38:51;99517.84;;;18.50;53.88
73525;BME280;61776;56.194;44.160;2022-09-16T08:47:01;99517.66;;;18.65;51.01
73525;BME280;61776;56.194;44.160;2022-09-16T08:52:11;99518.03;;;18.89;52.08
73525;BME280;61776;56.194;44.160;2022-09-16T08:54:44;99512.75;;;19.09;50.84
73525;BME280;61776;56.194;44.160;2022-09-16T08:57:21;99514.53;;;19.22;50.64
73525;BME280;61776;56.194;44.160;2022-09-16T09:00:01;99507.84;;;19.32;50.80
73525;BME280;61776;56.194;44.160;2022-09-16T09:05:35;99503.97;;;19.42;49.42
73525;BME280;61776;56.194;44.160;2022-09-16T09:15:59;99503.28;;;18.88;49.80
73525;BME280;61776;56.194;44.160;2022-09-16T09:18:32;99504.06;;;19.08;49.82
73525;BME280;61776;56.194;44.160;2022-09-16T09:24:18;99505.94;;;19.46;50.92
73525;BME280;61776;56.194;44.160;2022-09-16T09:26:54;99509.47;;;19.78;46.24
73525;BME280;61776;56.194;44.160;2022-09-16T09:30:19;99509.19;;;19.93;49.74
73525;BME280;61776;56.194;44.160;2022-09-16T09:35:57;99501.34;;;19.87;48.21
73525;BME280;61776;56.194;44.160;2022-09-16T09:42:04;99499.31;;;19.89;47.79
73525;BME280;61776;56.194;44.160;2022-09-16T09:47:04;99498.66;;;19.93;50.61
73525;BME280;61776;56.194;44.160;2022-09-16T09:49:45;99505.47;;;20.08;51.26
73525;BME280;61776;56.194;44.160;2022-09-16T09:52:13;99498.72;;;20.19;49.96
73525;BME280;61776;56.194;44.160;2022-09-16T09:54:45;99502.53;;;20.23;50.92
73525;BME280;61776;56.194;44.160;2022-09-16T09:57:29;99503.81;;;20.39;50.00
73525;BME280;61776;56.194;44.160;2022-09-16T10:00:19;99503.19;;;20.68;48.49
73525;BME280;61776;56.194;44.160;2022-09-16T10:02:47;99503.44;;;20.67;46.56
73525;BME280;61776;56.194;44.160;2022-09-16T10:05:26;99504.75;;;20.76;47.61
73525;BME280;61776;56.194;44.160;2022-09-16T10:07:58;99501.09;;;20.77;47.13
73525;BME280;61776;56.194;44.160;2022-09-16T10:10:31;99498.53;;;20.89;46.32
73525;BME280;61776;56.194;44.160;2022-09-16T10:13:10;99498.97;;;20.86;45.38
73525;BME280;61776;56.194;44.160;2022-09-16T10:15:40;99498.75;;;20.69;47.26
73525;BME280;61776;56.194;44.160;2022-09-16T10:20:58;99492.97;;;20.97;47.43
73525;BME280;61776;56.194;44.160;2022-09-16T10:23:27;99486.97;;;21.27;47.57
73525;BME280;61776;56.194;44.160;2022-09-16T10:28:39;99481.53;;;21.59;46.14
73525;BME280;61776;56.194;44.160;2022-09-16T10:31:09;99487.19;;;21.44;45.58
73525;BME280;61776;56.194;44.160;2022-09-16T10:33:42;99481.91;;;21.25;45.24
73525;BME280;61776;56.194;44.160;2022-09-16T10:36:20;99479.56;;;20.99;46.11
73525;BME280;61776;56.194;44.160;2022-09-16T10:39:00;99481.28;;;20.68;47.18
73525;BME280;61776;56.194;44.160;2022-09-16T10:41:41;99476.84;;;20.36;47.42
73525;BME280;61776;56.194;44.160;2022-09-16T10:44:27;99469.66;;;20.25;48.26
73525;BME280;61776;56.194;44.160;2022-09-16T10:47:00;99468.09;;;20.43;47.36
73525;BME280;61776;56.194;44.160;2022-09-16T10:49:38;99460.19;;;20.43;45.44
73525;BME280;61776;56.194;44.160;2022-09-16T10:52:42;99470.84;;;20.54;45.87
73525;BME280;61776;56.194;44.160;2022-09-16T10:57:47;99454.19;;;21.35;46.19
73525;BME280;61776;56.194;44.160;2022-09-16T11:00:23;99457.97;;;21.39;44.28
73525;BME280;61776;56.194;44.160;2022-09-16T11:05:45;99451.47;;;21.23;43.52
73525;BME280;61776;56.194;44.160;2022-09-16T11:19:42;99436.81;;;20.71;46.09
73525;BME280;61776;56.194;44.160;2022-09-16T11:22:30;99432.66;;;20.82;43.75
73525;BME280;61776;56.194;44.160;2022-09-16T11:25:24;99429.56;;;20.67;44.97
73525;BME280;61776;56.194;44.160;2022-09-16T11:30:52;99420.94;;;20.09;47.78
73525;BME280;61776;56.194;44.160;2022-09-16T11:36:22;99419.19;;;19.58;50.18
73525;BME280;61776;56.194;44.160;2022-09-16T11:39:19;99415.84;;;19.44;51.47
73525;BME280;61776;56.194;44.160;2022-09-16T11:42:21;99423.16;;;19.42;50.07
73525;BME280;61776;56.194;44.160;2022-09-16T11:45:01;99419.28;;;19.45;51.15
73525;BME280;61776;56.194;44.160;2022-09-16T11:58:00;99407.31;;;19.04;52.66
73525;BME280;61776;56.194;44.160;2022-09-16T12:00:37;99410.25;;;18.82;53.25
73525;BME280;61776;56.194;44.160;2022-09-16T12:03:30;99414.06;;;18.66;54.71
73525;BME280;61776;56.194;44.160;2022-09-16T12:06:08;99411.50;;;18.46;53.81
73525;BME280;61776;56.194;44.160;2022-09-16T12:08:56;99414.13;;;18.33;54.43
73525;BME280;61776;56.194;44.160;2022-09-16T12:11:31;99417.78;;;18.18;55.18
73525;BME280;61776;56.194;44.160;2022-09-16T12:14:15;99405.25;;;18.07;55.69
73525;BME280;61776;56.194;44.160;2022-09-16T12:16:51;99409.28;;;17.96;55.94
73525;BME280;61776;56.194;44.160;2022-09-16T12:19:48;99407.66;;;17.89;56.89
73525;BME280;61776;56.194;44.160;2022-09-16T12:25:02;99395.28;;;17.76;58.12
73525;BME280;61776;56.194;44.160;2022-09-16T12:27:53;99405.00;;;17.75;58.44
73525;BME280;61776;56.194;44.160;2022-09-16T12:30:26;99410.91;;;17.91;57.63
73525;BME280;61776;56.194;44.160;2022-09-16T12:33:05;99407.06;;;17.87;57.45
73525;BME280;61776;56.194;44.160;2022-09-16T12:35:55;99409.88;;;17.92;56.47
73525;BME280;61776;56.194;44.160;2022-09-16T12:38:25;99402.59;;;17.87;57.23
73525;BME280;61776;56.194;44.160;2022-09-16T12:55:13;99392.84;;;17.61;58.03
73525;BME280;61776;56.194;44.160;2022-09-16T12:58:26;99396.88;;;17.57;57.72
73525;BME280;61776;56.194;44.160;2022-09-16T13:01:22;99394.41;;;17.49;58.40
73525;BME280;61776;56.194;44.160;2022-09-16T13:03:54;99397.25;;;17.40;58.33
73525;BME280;61776;56.194;44.160;2022-09-16T13:06:29;99398.22;;;17.33;59.15
73525;BME280;61776;56.194;44.160;2022-09-16T13:09:21;99395.56;;;17.19;59.77
73525;BME280;61776;56.194;44.160;2022-09-16T13:11:59;99400.16;;;17.11;58.96
73525;BME280;61776;56.194;44.160;2022-09-16T13:14:33;99392.91;;;17.06;60.13
73525;BME280;61776;56.194;44.160;2022-09-16T13:17:04;99389.25;;;17.00;60.71
73525;BME280;61776;56.194;44.160;2022-09-16T13:19:55;99384.97;;;16.99;61.44
73525;BME280;61776;56.194;44.160;2022-09-16T13:22:56;99380.75;;;16.98;61.25
73525;BME280;61776;56.194;44.160;2022-09-16T13:28:23;99388.84;;;17.03;61.29
73525;BME280;61776;56.194;44.160;2022-09-16T13:30:53;99382.78;;;17.03;61.24
73525;BME280;61776;56.194;44.160;2022-09-16T13:33:25;99381.56;;;17.05;61.40
73525;BME280;61776;56.194;44.160;2022-09-16T13:38:47;99375.53;;;17.05;61.19
73525;BME280;61776;56.194;44.160;2022-09-16T13:41:45;99376.13;;;17.07;61.33
73525;BME280;61776;56.194;44.160;2022-09-16T13:44:44;99373.50;;;17.07;62.55
73525;BME280;61776;56.194;44.160;2022-09-16T13:49:53;99372.28;;;17.03;62.22
73525;BME280;61776;56.194;44.160;2022-09-16T13:52:34;99364.19;;;16.98;61.97
73525;BME280;61776;56.194;44.160;2022-09-16T13:55:05;99374.69;;;16.91;62.11
73525;BME280;61776;56.194;44.160;2022-09-16T13:58:11;99372.81;;;16.85;62.23
73525;BME280;61776;56.194;44.160;2022-09-16T14:03:21;99360.03;;;16.68;60.67
73525;BME280;61776;56.194;44.160;2022-09-16T14:14:22;99346.00;;;16.48;62.81
73525;BME280;61776;56.194;44.160;2022-09-16T14:16:52;99349.78;;;16.45;63.10
73525;BME280;61776;56.194;44.160;2022-09-16T14:24:38;99349.91;;;16.30;64.74
73525;BME280;61776;56.194;44.160;2022-09-16T14:27:26;99353.34;;;16.31;65.41
73525;BME280;61776;56.194;44.160;2022-09-16T14:29:57;99353.97;;;16.33;65.31
73525;BME280;61776;56.194;44.160;2022-09-16T14:32:30;99355.75;;;16.33;65.48
73525;BME280;61776;56.194;44.160;2022-09-16T14:35:08;99357.94;;;16.29;65.25
73525;BME280;61776;56.194;44.160;2022-09-16T14:37:38;99352.31;;;16.25;65.46
73525;BME280;61776;56.194;44.160;2022-09-16T14:40:13;99354.09;;;16.25;64.78
73525;BME280;61776;56.194;44.160;2022-09-16T14:42:50;99354.97;;;16.32;64.44
73525;BME280;61776;56.194;44.160;2022-09-16T14:45:20;99356.00;;;16.38;64.09
73525;BME280;61776;56.194;44.160;2022-09-16T14:47:51;99348.22;;;16.51;63.71
73525;BME280;61776;56.194;44.160;2022-09-16T14:50:23;99355.88;;;16.53;63.61
73525;BME280;61776;56.194;44.160;2022-09-16T14:53:00;99353.47;;;16.51;63.79
73525;BME280;61776;56.194;44.160;2022-09-16T14:55:30;99348.56;;;16.41;64.21
73525;BME280;61776;56.194;44.160;2022-09-16T14:57:59;99347.28;;;16.30;64.17
73525;BME280;61776;56.194;44.160;2022-09-16T15:00:42;99348.44;;;16.21;64.58
73525;BME280;61776;56.194;44.160;2022-09-16T15:03:13;99348.16;;;16.09;65.06
73525;BME280;61776;56.194;44.160;2022-09-16T15:05:44;99351.09;;;16.00;65.47
73525;BME280;61776;56.194;44.160;2022-09-16T15:08:17;99353.84;;;15.91;65.88
73525;BME280;61776;56.194;44.160;2022-09-16T15:10:47;99349.78;;;15.82;65.60
73525;BME280;61776;56.194;44.160;2022-09-16T15:13:18;99354.59;;;15.64;65.63
73525;BME280;61776;56.194;44.160;2022-09-16T15:18:25;99357.19;;;15.21;65.83
73525;BME280;61776;56.194;44.160;2022-09-16T15:21:15;99361.75;;;15.19;66.00
73525;BME280;61776;56.194;44.160;2022-09-16T15:23:46;99358.34;;;15.18;66.40
73525;BME280;61776;56.194;44.160;2022-09-16T15:26:48;99355.56;;;15.20;67.16
73525;BME280;61776;56.194;44.160;2022-09-16T15:31:42;99351.06;;;15.13;66.97
73525;BME280;61776;56.194;44.160;2022-09-16T15:34:19;99341.59;;;15.12;67.26
73525;BME280;61776;56.194;44.160;2022-09-16T15:39:33;99339.09;;;15.04;67.69
73525;BME280;61776;56.194;44.160;2022-09-16T15:44:42;99331.63;;;15.01;67.76
73525;BME280;61776;56.194;44.160;2022-09-16T15:47:17;99337.22;;;14.98;68.17
73525;BME280;61776;56.194;44.160;2022-09-16T15:49:54;99324.69;;;14.93;68.70
73525;BME280;61776;56.194;44.160;2022-09-16T15:52:26;99330.66;;;14.87;68.90
73525;BME280;61776;56.194;44.160;2022-09-16T15:55:01;99335.63;;;14.82;68.98
73525;BME280;61776;56.194;44.160;2022-09-16T15:57:37;99335.34;;;14.77;69.17
73525;BME280;61776;56.194;44.160;2022-09-16T16:00:10;99340.94;;;14.74;69.38
73525;BME280;61776;56.194;44.160;2022-09-16T16:02:50;99340.13;;;14.73;69.46
73525;BME280;61776;56.194;44.160;2022-09-16T16:05:24;99341.94;;;14.73;69.53
73525;BME280;61776;56.194;44.160;2022-09-16T16:07:57;99345.34;;;14.73;69.79
73525;BME280;61776;56.194;44.160;2022-09-16T16:10:25;99345.56;;;14.72;69.80
73525;BME280;61776;56.194;44.160;2022-09-16T16:12:54;99339.66;;;14.70;69.76
73525;BME280;61776;56.194;44.160;2022-09-16T16:15:26;99340.50;;;14.70;69.64
73525;BME280;61776;56.194;44.160;2022-09-16T16:17:58;99339.50;;;14.71;69.68
73525;BME280;61776;56.194;44.160;2022-09-16T16:20:26;99330.84;;;14.71;69.65
73525;BME280;61776;56.194;44.160;2022-09-16T16:22:56;99324.38;;;14.67;69.55
73525;BME280;61776;56.194;44.160;2022-09-16T16:25:26;99321.94;;;14.65;69.62
73525;BME280;61776;56.194;44.160;2022-09-16T16:27:54;99317.06;;;14.62;69.44
73525;BME280;61776;56.194;44.160;2022-09-16T16:30:22;99313.47;;;14.63;69.54
73525;BME280;61776;56.194;44.160;2022-09-16T16:32:51;99312.69;;;14.63;69.13
73525;BME280;61776;56.194;44.160;2022-09-16T16:35:18;99303.19;;;14.62;68.64
73525;BME280;61776;56.194;44.160;2022-09-16T16:37:47;99296.34;;;14.61;68.94
73525;BME280;61776;56.194;44.160;2022-09-16T16:40:15;99292.31;;;14.58;68.84
73525;BME280;61776;56.194;44.160;2022-09-16T16:42:43;99291.81;;;14.54;68.72
73525;BME280;61776;56.194;44.160;2022-09-16T16:45:12;99295.44;;;14.53;68.70
73525;BME280;61776;56.194;44.160;2022-09-16T16:47:39;99299.22;;;14.51;68.76
73525;BME280;61776;56.194;44.160;2022-09-16T16:50:06;99301.19;;;14.49;68.96
73525;BME280;61776;56.194;44.160;2022-09-16T16:52:35;99299.38;;;14.49;68.75
73525;BME280;61776;56.194;44.160;2022-09-16T16:55:03;99293.34;;;14.49;68.71
73525;BME280;61776;56.194;44.160;2022-09-16T16:57:31;99306.25;;;14.50;68.77
73525;BME280;61776;56.194;44.160;2022-09-16T17:00:00;99304.81;;;14.48;68.73
73525;BME280;61776;56.194;44.160;2022-09-16T17:02:29;99305.16;;;14.45;68.71
73525;BME280;61776;56.194;44.160;2022-09-16T17:04:56;99310.56;;;14.43;68.74
73525;BME280;61776;56.194;44.160;2022-09-16T17:07:24;99312.53;;;14.41;68.88
73525;BME280;61776;56.194;44.160;2022-09-16T17:10:11;99304.25;;;14.37;68.88
73525;BME280;61776;56.194;44.160;2022-09-16T17:13:17;99304.25;;;14.37;67.89
73525;BME280;61776;56.194;44.160;2022-09-16T17:16:53;99304.44;;;14.36;67.73
73525;BME280;61776;56.194;44.160;2022-09-16T17:20:31;99299.75;;;14.31;67.14
73525;BME280;61776;56.194;44.160;2022-09-16T17:27:44;99308.56;;;14.30;66.54
73525;BME280;61776;56.194;44.160;2022-09-16T17:30:54;99311.81;;;14.32;65.85
73525;BME280;61776;56.194;44.160;2022-09-16T17:38:18;99296.53;;;14.29;65.54
73525;BME280;61776;56.194;44.160;2022-09-16T17:41:24;99294.72;;;14.30;65.75
73525;BME280;61776;56.194;44.160;2022-09-16T17:44:30;99285.25;;;14.29;65.89
73525;BME280;61776;56.194;44.160;2022-09-16T17:47:35;99291.31;;;14.29;65.85
73525;BME280;61776;56.194;44.160;2022-09-16T17:54:48;99267.34;;;14.26;65.47
